createdAt,value
2018-12-19T00:01:27.726Z,-1.00
2018-12-19T00:03:56.716Z,-1.00
2018-12-19T00:06:25.487Z,-1.00
2018-12-19T00:08:54.225Z,-1.00
2018-12-19T00:11:22.873Z,-1.00
2018-12-19T00:13:51.824Z,-1.00
2018-12-19T00:16:20.426Z,-1.00
2018-12-19T00:18:49.246Z,-1.00
2018-12-19T00:21:18.042Z,-1.00
2018-12-19T00:23:46.811Z,-1.00
2018-12-19T00:26:15.499Z,-1.00
2018-12-19T00:28:44.277Z,-1.00
2018-12-19T00:31:12.936Z,-0.90
2018-12-19T00:33:41.636Z,-0.90
2018-12-19T00:36:10.320Z,-0.90
2018-12-19T00:38:39.223Z,-0.90
2018-12-19T00:41:07.892Z,-0.90
2018-12-19T00:43:36.571Z,-0.80
2018-12-19T00:46:05.261Z,-0.80
2018-12-19T00:48:34.171Z,-0.80
2018-12-19T00:51:02.978Z,-0.70
2018-12-19T00:53:31.737Z,-0.70
2018-12-19T00:56:00.535Z,-0.70
2018-12-19T00:58:29.549Z,-0.70
2018-12-19T01:00:58.189Z,-0.70
2018-12-19T01:03:26.898Z,-0.60
2018-12-19T01:05:55.586Z,-0.70
2018-12-19T01:08:24.249Z,-0.70
2018-12-19T01:10:52.963Z,-0.60
2018-12-19T01:13:21.938Z,-0.60
2018-12-19T01:15:50.526Z,-0.60
2018-12-19T01:18:19.197Z,-0.60
2018-12-19T01:20:48.004Z,-0.60
2018-12-19T01:23:16.730Z,-0.60
2018-12-19T01:25:45.429Z,-0.50
2018-12-19T01:28:14.145Z,-0.50
2018-12-19T01:30:42.946Z,-0.50
2018-12-19T01:33:11.630Z,-0.50
2018-12-19T01:35:40.293Z,-0.50
2018-12-19T01:38:09.005Z,-0.50
2018-12-19T01:40:37.653Z,-0.50
2018-12-19T01:43:06.363Z,-0.50
2018-12-19T01:45:35.032Z,-0.50
2018-12-19T01:48:03.888Z,-0.50
2018-12-19T01:50:32.525Z,-0.50
2018-12-19T01:53:01.353Z,-0.50
2018-12-19T01:55:30.014Z,-0.50
2018-12-19T01:57:58.690Z,-0.50
2018-12-19T02:00:34.030Z,-0.50
2018-12-19T02:03:02.811Z,-0.50
2018-12-19T02:05:32.522Z,-0.50
2018-12-19T02:08:01.196Z,-0.50
2018-12-19T02:10:30.065Z,-0.50
2018-12-19T02:12:58.758Z,-0.50
2018-12-19T02:15:27.570Z,-0.50
2018-12-19T02:17:56.229Z,-0.50
2018-12-19T02:20:24.929Z,-0.50
2018-12-19T02:22:53.641Z,-0.50
2018-12-19T02:25:22.515Z,-0.50
2018-12-19T02:27:51.201Z,-0.60
2018-12-19T02:30:19.988Z,-0.60
2018-12-19T02:32:48.668Z,-0.60
2018-12-19T02:35:17.334Z,-0.60
2018-12-19T02:37:46.049Z,-0.60
2018-12-19T02:40:14.927Z,-0.60
2018-12-19T02:42:43.739Z,-0.60
2018-12-19T02:45:12.490Z,-0.60
2018-12-19T02:47:41.192Z,-0.60
2018-12-19T02:50:09.874Z,-0.60
2018-12-19T02:52:38.679Z,-0.60
2018-12-19T02:55:07.451Z,-0.70
2018-12-19T02:57:36.159Z,-0.70
2018-12-19T03:00:05.889Z,-0.70
2018-12-19T03:02:34.502Z,-0.70
2018-12-19T03:05:03.363Z,-0.70
2018-12-19T03:07:32.005Z,-0.70
2018-12-19T03:10:00.674Z,-0.70
2018-12-19T03:12:29.391Z,-0.70
2018-12-19T03:14:58.049Z,-0.80
2018-12-19T03:17:26.986Z,-0.80
2018-12-19T03:19:55.615Z,-0.80
2018-12-19T03:22:24.296Z,-0.80
2018-12-19T03:24:53.017Z,-0.80
2018-12-19T03:27:21.660Z,-0.90
2018-12-19T03:29:50.358Z,-0.90
2018-12-19T03:32:19.040Z,-0.90
2018-12-19T03:34:47.726Z,-0.90
2018-12-19T03:37:16.419Z,-0.90
2018-12-19T03:39:50.192Z,-0.90
2018-12-19T03:42:15.827Z,-0.90
2018-12-19T03:51:41.941Z,-0.90
2018-12-19T03:54:10.697Z,-0.90
2018-12-19T03:56:39.640Z,-1.00
2018-12-19T03:59:08.380Z,-0.90
2018-12-19T04:01:37.283Z,-0.90
2018-12-19T04:04:05.953Z,-0.90
2018-12-19T04:06:34.641Z,-0.90
2018-12-19T04:09:04.124Z,-0.90
2018-12-19T04:11:32.859Z,-0.90
2018-12-19T04:14:01.493Z,-0.90
2018-12-19T04:16:30.232Z,-0.90
2018-12-19T04:18:58.906Z,-0.80
2018-12-19T04:21:27.568Z,-0.80
2018-12-19T04:23:56.253Z,-0.80
2018-12-19T04:26:24.911Z,-0.80
2018-12-19T04:28:53.606Z,-0.80
2018-12-19T04:31:22.505Z,-0.70
2018-12-19T04:33:51.296Z,-0.70
2018-12-19T04:36:20.083Z,-0.70
2018-12-19T04:38:49.099Z,-0.80
2018-12-19T04:41:17.752Z,-0.70
2018-12-19T04:43:46.423Z,-0.80
2018-12-19T04:46:15.441Z,-0.80
2018-12-19T04:48:44.223Z,-0.80
2018-12-19T04:51:12.897Z,-0.80
2018-12-19T04:53:41.596Z,-0.80
2018-12-19T04:56:10.278Z,-0.80
2018-12-19T04:58:38.969Z,-0.80
2018-12-19T05:01:07.650Z,-0.80
2018-12-19T05:03:36.501Z,-0.90
2018-12-19T05:06:05.201Z,-0.80
2018-12-19T05:08:33.888Z,-0.80
2018-12-19T05:11:02.593Z,-0.80
2018-12-19T05:13:31.286Z,-0.70
2018-12-19T05:16:00.013Z,-0.70
2018-12-19T05:18:28.685Z,-0.70
2018-12-19T05:20:57.452Z,-0.70
2018-12-19T05:23:26.123Z,-0.70
2018-12-19T05:25:54.794Z,-0.60
2018-12-19T05:28:23.656Z,-0.60
2018-12-19T05:30:52.286Z,-0.60
2018-12-19T05:33:20.950Z,-0.60
2018-12-19T05:35:49.670Z,-0.60
2018-12-19T05:38:18.320Z,-0.50
2018-12-19T05:40:47.011Z,-0.60
2018-12-19T05:43:15.685Z,-0.50
2018-12-19T05:45:44.395Z,-0.50
2018-12-19T05:48:13.078Z,-0.50
2018-12-19T05:50:41.669Z,-0.50
2018-12-19T05:53:10.334Z,-0.50
2018-12-19T05:55:39.010Z,-0.50
2018-12-19T05:58:07.736Z,-0.50
2018-12-19T06:00:36.506Z,-0.50
2018-12-19T06:03:05.191Z,-0.50
2018-12-19T06:05:33.893Z,-0.50
2018-12-19T06:08:02.593Z,-0.50
2018-12-19T06:10:32.265Z,-0.50
2018-12-19T06:13:00.954Z,-0.50
2018-12-19T06:15:29.944Z,-0.50
2018-12-19T06:17:58.686Z,-0.50
2018-12-19T06:20:27.443Z,-0.50
2018-12-19T06:22:56.206Z,-0.50
2018-12-19T06:25:24.969Z,-0.40
2018-12-19T06:27:53.874Z,-0.40
2018-12-19T06:30:22.991Z,-0.30
2018-12-19T06:32:52.275Z,-0.30
2018-12-19T06:35:20.981Z,-0.30
2018-12-19T06:37:49.662Z,-0.20
2018-12-19T06:40:18.375Z,-0.20
2018-12-19T06:42:47.145Z,-0.20
2018-12-19T06:45:15.917Z,-0.20
2018-12-19T06:47:44.781Z,-0.20
2018-12-19T06:50:13.412Z,-0.20
2018-12-19T06:52:42.260Z,-0.10
2018-12-19T06:55:11.055Z,-0.10
2018-12-19T06:57:39.827Z,-0.10
2018-12-19T07:00:08.743Z,-0.10
2018-12-19T07:02:37.457Z,-0.10
2018-12-19T07:05:06.494Z,-0.10
2018-12-19T07:07:35.234Z,-0.10
2018-12-19T07:10:04.145Z,-0.20
2018-12-19T07:12:32.975Z,-0.20
2018-12-19T07:15:01.746Z,-0.20
2018-12-19T07:17:30.481Z,-0.30
2018-12-19T07:19:59.159Z,-0.20
2018-12-19T07:22:27.823Z,-0.30
2018-12-19T07:24:56.506Z,-0.30
2018-12-19T07:27:25.473Z,-0.40
2018-12-19T07:29:54.197Z,-0.40
2018-12-19T07:32:23.090Z,-0.40
2018-12-19T07:34:51.726Z,-0.50
2018-12-19T07:37:20.437Z,-0.50
2018-12-19T07:39:49.225Z,-0.50
2018-12-19T07:42:17.935Z,-0.60
2018-12-19T07:44:46.654Z,-0.60
2018-12-19T07:47:15.414Z,-0.70
2018-12-19T07:49:44.150Z,-0.70
2018-12-19T07:52:13.115Z,-0.60
2018-12-19T07:54:41.878Z,-0.60
2018-12-19T07:57:10.693Z,-0.70
2018-12-19T07:59:39.453Z,-0.70
2018-12-19T08:02:08.186Z,-0.80
2018-12-19T08:04:37.120Z,-0.70
2018-12-19T08:07:05.917Z,-0.80
2018-12-19T08:09:34.621Z,-0.80
2018-12-19T08:12:03.302Z,-0.80
2018-12-19T08:14:32.089Z,-0.80
2018-12-19T08:17:00.857Z,-0.80
2018-12-19T08:19:29.711Z,-0.80
2018-12-19T08:21:58.410Z,-0.80
2018-12-19T08:24:27.113Z,-0.90
2018-12-19T08:26:55.877Z,-0.90
2018-12-19T08:29:24.551Z,-0.90
2018-12-19T08:31:53.269Z,-0.90
2018-12-19T08:34:22.137Z,-0.90
2018-12-19T08:36:50.817Z,-0.90
2018-12-19T08:39:19.906Z,-0.90
2018-12-19T08:41:49.002Z,-0.90
2018-12-19T08:44:17.680Z,-0.90
2018-12-19T08:46:46.497Z,-1.00
2018-12-19T08:49:15.149Z,-1.00
2018-12-19T08:51:43.869Z,-1.00
2018-12-19T08:54:12.708Z,-1.00
2018-12-19T08:56:41.628Z,-1.00
2018-12-19T08:59:10.303Z,-1.00
2018-12-19T09:01:39.096Z,-1.00
2018-12-19T09:04:07.895Z,-1.00
2018-12-19T09:06:36.679Z,-0.90
2018-12-19T09:09:07.133Z,-1.00
2018-12-19T09:11:35.916Z,-0.90
2018-12-19T09:14:04.605Z,-1.00
2018-12-19T09:16:33.345Z,-1.00
2018-12-19T09:19:02.175Z,-0.90
2018-12-19T09:21:30.811Z,-0.90
2018-12-19T09:23:59.615Z,-0.90
2018-12-19T09:26:29.410Z,-0.90
2018-12-19T09:28:58.092Z,-1.00
2018-12-19T09:31:26.777Z,-0.90
2018-12-19T09:33:55.469Z,-1.00
2018-12-19T09:36:24.319Z,-1.00
2018-12-19T09:38:52.949Z,-1.10
2018-12-19T09:41:21.741Z,-1.10
2018-12-19T09:43:50.435Z,-1.20
2018-12-19T09:46:19.122Z,-1.20
2018-12-19T09:48:47.825Z,-1.30
2018-12-19T09:51:16.832Z,-1.40
2018-12-19T09:53:45.502Z,-1.30
2018-12-19T09:56:14.242Z,-1.40
2018-12-19T09:58:42.985Z,-1.40
2018-12-19T10:01:11.813Z,-1.40
2018-12-19T10:03:40.515Z,-1.40
2018-12-19T10:06:09.227Z,-1.40
2018-12-19T10:08:38.033Z,-1.40
2018-12-19T10:11:06.670Z,-1.30
2018-12-19T10:13:35.381Z,-1.50
2018-12-19T10:16:04.281Z,-1.60
2018-12-19T10:18:33.565Z,-1.70
2018-12-19T10:21:02.243Z,-1.70
2018-12-19T10:23:30.916Z,-1.80
2018-12-19T10:26:05.056Z,-1.80
2018-12-19T10:28:34.467Z,-1.70
2018-12-19T10:31:04.105Z,-1.70
2018-12-19T10:33:32.794Z,-1.70
2018-12-19T10:36:01.607Z,-1.80
2018-12-19T10:38:30.296Z,-1.80
2018-12-19T10:40:59.300Z,-1.80
2018-12-19T10:43:28.013Z,-1.80
2018-12-19T10:45:56.834Z,-1.80
2018-12-19T10:48:25.455Z,-1.80
2018-12-19T10:50:54.186Z,-1.80
2018-12-19T10:53:22.834Z,-1.80
2018-12-19T10:55:51.531Z,-1.80
2018-12-19T10:58:20.409Z,-1.80
2018-12-19T11:00:54.312Z,-1.80
2018-12-19T11:03:23.030Z,-1.80
2018-12-19T11:05:54.517Z,-1.70
2018-12-19T11:08:22.415Z,-1.70
2018-12-19T11:10:51.387Z,-1.70
2018-12-19T11:13:20.066Z,-1.80
2018-12-19T11:15:48.789Z,-1.80
2018-12-19T11:18:17.568Z,-1.90
2018-12-19T11:20:46.381Z,-2.10
2018-12-19T11:23:16.274Z,-2.10
2018-12-19T11:25:45.449Z,-2.10
2018-12-19T11:28:14.232Z,-2.10
2018-12-19T11:30:43.806Z,-2.10
2018-12-19T11:33:12.453Z,-2.20
2018-12-19T11:35:41.186Z,-2.10
2018-12-19T11:38:09.814Z,-2.10
2018-12-19T11:40:38.498Z,-2.10
2018-12-19T11:43:07.203Z,-2.10
2018-12-19T11:45:35.957Z,-2.10
2018-12-19T11:48:05.149Z,-2.20
2018-12-19T11:50:33.953Z,-2.20
2018-12-19T11:53:02.722Z,-2.20
2018-12-19T11:55:31.528Z,-2.20
2018-12-19T11:58:00.243Z,-2.20
2018-12-19T12:00:28.877Z,-2.20
2018-12-19T12:02:57.604Z,-2.10
2018-12-19T12:05:26.242Z,-2.20
2018-12-19T12:07:54.966Z,-2.30
2018-12-19T12:10:23.638Z,-2.20
2018-12-19T12:12:52.294Z,-2.20
2018-12-19T12:15:20.980Z,-2.10
2018-12-19T12:17:49.691Z,-2.10
2018-12-19T12:20:18.467Z,-2.10
2018-12-19T12:22:47.342Z,-2.20
2018-12-19T12:25:16.167Z,-2.30
2018-12-19T12:27:44.953Z,-2.30
2018-12-19T12:30:13.676Z,-2.30
2018-12-19T12:32:42.421Z,-2.30
2018-12-19T12:35:11.260Z,-2.30
2018-12-19T12:37:39.994Z,-2.30
2018-12-19T12:40:09.746Z,-2.40
2018-12-19T12:42:38.493Z,-2.40
2018-12-19T12:45:07.618Z,-2.40
2018-12-19T12:47:36.342Z,-2.40
2018-12-19T12:50:06.150Z,-2.30
2018-12-19T12:52:34.772Z,-2.30
2018-12-19T12:55:03.602Z,-2.30
2018-12-19T12:57:33.438Z,-2.40
2018-12-19T13:00:02.243Z,-2.40
2018-12-19T13:02:30.992Z,-2.40
2018-12-19T13:04:59.597Z,-2.40
2018-12-19T13:07:28.328Z,-2.40
2018-12-19T13:09:57.119Z,-2.40
2018-12-19T13:12:25.982Z,-2.50
2018-12-19T13:14:54.660Z,-2.50
2018-12-19T13:18:52.547Z,-2.50
2018-12-19T13:21:21.321Z,-2.50
2018-12-19T13:23:50.013Z,-2.50
2018-12-19T13:26:18.661Z,-2.60
2018-12-19T13:28:47.312Z,-2.70
2018-12-19T13:31:16.282Z,-2.70
2018-12-19T13:33:45.173Z,-2.80
2018-12-19T13:36:13.864Z,-2.80
2018-12-19T13:38:42.647Z,-2.80
2018-12-19T13:41:11.290Z,-2.80
2018-12-19T13:43:40.017Z,-2.80
2018-12-19T13:46:08.689Z,-2.80
2018-12-19T13:48:37.398Z,-2.80
2018-12-19T13:51:06.095Z,-2.80
2018-12-19T13:53:34.781Z,-2.80
2018-12-19T13:56:03.434Z,-2.90
2018-12-19T13:58:32.797Z,-2.90
2018-12-19T14:01:01.607Z,-2.90
2018-12-19T14:03:30.294Z,-2.90
2018-12-19T14:05:59.194Z,-2.90
2018-12-19T14:08:27.857Z,-2.90
2018-12-19T14:10:56.577Z,-2.90
2018-12-19T14:13:25.462Z,-2.90
2018-12-19T14:15:54.121Z,-2.90
2018-12-19T14:18:22.850Z,-2.90
2018-12-19T14:20:51.673Z,-2.90
2018-12-19T14:23:20.280Z,-2.90
2018-12-19T14:25:49.186Z,-2.90
2018-12-19T14:28:17.854Z,-2.90
2018-12-19T14:30:47.064Z,-2.90
2018-12-19T14:33:16.066Z,-3.00
2018-12-19T14:35:44.852Z,-3.00
2018-12-19T14:38:13.511Z,-3.10
2018-12-19T14:40:42.209Z,-3.10
2018-12-19T14:43:11.078Z,-3.10
2018-12-19T14:45:39.867Z,-3.10
2018-12-19T14:48:08.606Z,-3.10
2018-12-19T14:50:37.368Z,-3.10
2018-12-19T14:53:06.078Z,-3.10
2018-12-19T14:55:35.257Z,-3.10
2018-12-19T14:58:04.675Z,-3.10
2018-12-19T15:00:33.385Z,-3.10
2018-12-19T15:03:02.009Z,-3.10
2018-12-19T15:05:30.721Z,-3.10
2018-12-19T15:07:59.703Z,-3.10
2018-12-19T15:10:28.692Z,-3.20
2018-12-19T15:12:57.418Z,-3.20
2018-12-19T15:15:26.081Z,-3.10
2018-12-19T15:17:54.755Z,-3.10
2018-12-19T15:20:23.435Z,-3.10
2018-12-19T15:22:52.088Z,-3.20
2018-12-19T15:25:20.806Z,-3.20
2018-12-19T15:27:49.489Z,-3.10
2018-12-19T15:30:18.232Z,-3.20
2018-12-19T15:32:47.181Z,-3.20
2018-12-19T15:35:15.909Z,-3.10
2018-12-19T15:37:44.510Z,-3.10
2018-12-19T15:40:13.276Z,-3.10
2018-12-19T15:42:41.896Z,-3.10
2018-12-19T15:45:10.868Z,-3.20
2018-12-19T15:47:39.602Z,-3.20
2018-12-19T15:50:08.908Z,-3.30
2018-12-19T15:52:37.651Z,-3.30
2018-12-19T15:55:06.407Z,-3.30
2018-12-19T15:57:35.109Z,-3.30
2018-12-19T16:00:04.565Z,-3.30
2018-12-19T16:02:33.181Z,-3.40
2018-12-19T16:05:01.780Z,-3.40
2018-12-19T16:07:30.536Z,-3.40
2018-12-19T16:09:59.201Z,-3.40
2018-12-19T16:12:27.922Z,-3.40
2018-12-19T16:14:56.684Z,-3.40
2018-12-19T16:17:25.377Z,-3.40
2018-12-19T16:19:54.125Z,-3.40
2018-12-19T16:22:22.966Z,-3.40
2018-12-19T16:24:51.669Z,-3.40
2018-12-19T16:27:20.398Z,-3.40
2018-12-19T16:29:49.271Z,-3.40
2018-12-19T16:32:18.132Z,-3.30
2018-12-19T16:34:46.912Z,-3.30
2018-12-19T16:37:15.613Z,-3.30
2018-12-19T16:39:44.548Z,-3.30
2018-12-19T16:42:13.289Z,-3.30
2018-12-19T16:44:42.025Z,-3.30
2018-12-19T16:47:10.886Z,-3.30
2018-12-19T16:49:39.677Z,-3.30
2018-12-19T16:52:08.406Z,-3.30
2018-12-19T16:54:37.043Z,-3.30
2018-12-19T16:57:05.744Z,-3.30
2018-12-19T16:59:34.436Z,-3.40
2018-12-19T17:02:03.087Z,-3.40
2018-12-19T17:04:31.799Z,-3.40
2018-12-19T17:07:00.569Z,-3.40
2018-12-19T17:09:29.307Z,-3.40
2018-12-19T17:11:57.920Z,-3.30
2018-12-19T17:14:26.667Z,-3.30
2018-12-19T17:16:55.411Z,-3.40
2018-12-19T17:19:24.125Z,-3.30
2018-12-19T17:21:52.795Z,-3.30
2018-12-19T17:24:25.690Z,-3.30
2018-12-19T17:26:54.729Z,-3.30
2018-12-19T17:29:23.473Z,-3.30
2018-12-19T17:31:52.232Z,-3.30
2018-12-19T17:34:24.538Z,-3.30
2018-12-19T17:36:55.353Z,-3.40
2018-12-19T17:39:24.046Z,-3.40
2018-12-19T17:41:52.820Z,-3.30
2018-12-19T17:44:21.513Z,-3.40
2018-12-19T17:46:50.201Z,-3.40
2018-12-19T17:49:18.938Z,-3.40
2018-12-19T17:51:47.659Z,-3.40
2018-12-19T17:54:16.294Z,-3.40
2018-12-19T17:56:45.093Z,-3.30
2018-12-19T17:59:13.892Z,-3.40
2018-12-19T18:01:42.705Z,-3.40
2018-12-19T18:04:11.418Z,-3.40
2018-12-19T18:06:40.227Z,-3.30
2018-12-19T18:09:08.977Z,-3.40
2018-12-19T18:11:37.956Z,-3.40
2018-12-19T18:14:07.052Z,-3.30
2018-12-19T18:16:35.939Z,-3.30
2018-12-19T18:19:04.807Z,-3.30
2018-12-19T18:21:33.576Z,-3.30
2018-12-19T18:24:02.411Z,-3.30
2018-12-19T18:26:32.213Z,-3.30
2018-12-19T18:29:00.918Z,-3.30
2018-12-19T18:31:29.636Z,-3.30
2018-12-19T18:33:58.280Z,-3.40
2018-12-19T18:36:26.971Z,-3.30
2018-12-19T18:38:55.643Z,-3.30
2018-12-19T18:41:24.337Z,-3.30
2018-12-19T18:43:52.989Z,-3.30
2018-12-19T18:46:21.718Z,-3.20
2018-12-19T18:50:14.774Z,-3.20
2018-12-19T18:52:43.526Z,-3.30
2018-12-19T18:55:12.270Z,-3.20
2018-12-19T18:57:40.990Z,-3.20
2018-12-19T19:00:10.326Z,-3.20
2018-12-19T19:02:39.119Z,-3.20
2018-12-19T19:05:07.952Z,-3.20
2018-12-19T19:07:36.690Z,-3.20
2018-12-19T19:10:05.737Z,-3.30
2018-12-19T19:12:34.576Z,-3.30
2018-12-19T19:15:03.434Z,-3.20
2018-12-19T19:17:32.114Z,-3.30
2018-12-19T19:20:00.826Z,-3.30
2018-12-19T19:22:29.535Z,-3.30
2018-12-19T19:24:58.237Z,-3.30
2018-12-19T19:27:26.857Z,-3.30
2018-12-19T19:29:55.592Z,-3.30
2018-12-19T19:32:24.594Z,-3.30
2018-12-19T19:34:53.383Z,-3.30
2018-12-19T19:37:22.206Z,-3.30
2018-12-19T19:39:51.194Z,-3.40
2018-12-19T19:42:20.801Z,-3.40
2018-12-19T19:44:50.485Z,-3.40
2018-12-19T19:47:19.638Z,-3.40
2018-12-19T19:49:48.556Z,-3.40
2018-12-19T19:52:17.312Z,-3.30
2018-12-19T19:54:46.109Z,-3.40
2018-12-19T19:57:14.835Z,-3.30
2018-12-19T19:59:43.692Z,-3.30
2018-12-19T20:02:12.411Z,-3.30
2018-12-19T20:04:41.209Z,-3.30
2018-12-19T20:07:09.957Z,-3.30
2018-12-19T20:09:38.903Z,-3.30
2018-12-19T20:12:07.645Z,-3.20
2018-12-19T20:14:36.502Z,-3.20
2018-12-19T20:17:05.304Z,-3.20
2018-12-19T20:19:34.009Z,-3.20
2018-12-19T20:22:02.711Z,-3.20
2018-12-19T20:24:31.399Z,-3.20
2018-12-19T20:27:00.118Z,-3.20
2018-12-19T20:29:28.841Z,-3.20
2018-12-19T20:31:57.553Z,-3.30
2018-12-19T20:34:26.317Z,-3.30
2018-12-19T20:36:55.281Z,-3.30
2018-12-19T20:39:24.025Z,-3.30
2018-12-19T20:41:52.915Z,-3.30
2018-12-19T20:44:21.697Z,-3.20
2018-12-19T20:46:50.424Z,-3.20
2018-12-19T20:49:19.418Z,-3.20
2018-12-19T20:51:48.107Z,-3.20
2018-12-19T20:54:16.821Z,-3.30
2018-12-19T20:56:45.510Z,-3.30
2018-12-19T20:59:14.305Z,-3.30
2018-12-19T21:01:43.090Z,-3.30
2018-12-19T21:04:12.454Z,-3.20
2018-12-19T21:06:41.165Z,-3.30
2018-12-19T21:09:10.085Z,-3.30
2018-12-19T21:11:38.751Z,-3.20
2018-12-19T21:14:07.586Z,-3.20
2018-12-19T21:16:41.811Z,-3.30
2018-12-19T21:19:10.547Z,-3.20
2018-12-19T21:21:39.240Z,-3.20
2018-12-19T21:24:07.927Z,-3.20
2018-12-19T21:26:36.548Z,-3.20
2018-12-19T21:29:05.346Z,-3.20
2018-12-19T21:31:34.030Z,-3.20
2018-12-19T21:34:02.861Z,-3.20
2018-12-19T21:36:31.572Z,-3.20
2018-12-19T21:39:00.488Z,-3.20
2018-12-19T21:41:29.216Z,-3.20
2018-12-19T21:43:57.961Z,-3.20
2018-12-19T21:46:26.791Z,-3.20
2018-12-19T21:48:55.524Z,-3.20
2018-12-19T21:51:24.249Z,-3.20
2018-12-19T21:53:52.915Z,-3.20
2018-12-19T21:56:21.737Z,-3.20
2018-12-19T21:58:50.511Z,-3.20
2018-12-19T22:01:19.168Z,-3.20
2018-12-19T22:03:47.954Z,-3.20
2018-12-19T22:06:16.776Z,-3.20
2018-12-19T22:08:45.424Z,-3.20
2018-12-19T22:11:14.121Z,-3.20
2018-12-19T22:13:43.058Z,-3.20
2018-12-19T22:16:16.023Z,-3.20
2018-12-19T22:18:48.112Z,-3.20
2018-12-19T22:21:17.303Z,-3.20
2018-12-19T22:23:45.937Z,-3.20
2018-12-19T22:26:14.908Z,-3.20
2018-12-19T22:28:43.891Z,-3.20
2018-12-19T22:31:12.590Z,-3.20
2018-12-19T22:33:41.396Z,-3.20
2018-12-19T22:36:10.094Z,-3.20
2018-12-19T22:38:38.870Z,-3.20
2018-12-19T22:41:07.702Z,-3.20
2018-12-19T22:43:36.549Z,-3.20
2018-12-19T22:46:05.356Z,-3.20
2018-12-19T22:48:34.434Z,-3.20
2018-12-19T22:51:03.336Z,-3.20
2018-12-19T22:53:32.205Z,-3.20
2018-12-19T22:56:01.021Z,-3.20
2018-12-19T22:58:29.797Z,-3.20
2018-12-19T23:01:04.031Z,-3.20
2018-12-19T23:03:38.299Z,-3.20
2018-12-19T23:06:07.147Z,-3.20
2018-12-19T23:08:35.820Z,-3.20
2018-12-19T23:11:04.618Z,-3.20
2018-12-19T23:13:33.458Z,-3.20
2018-12-19T23:16:02.304Z,-3.10
2018-12-19T23:18:31.005Z,-3.20
2018-12-19T23:20:59.841Z,-3.20
2018-12-19T23:23:28.733Z,-3.20
2018-12-19T23:25:57.520Z,-3.10
2018-12-19T23:28:26.381Z,-3.10
2018-12-19T23:30:55.251Z,-3.10
2018-12-19T23:33:23.957Z,-3.10
2018-12-19T23:35:52.808Z,-3.10
2018-12-19T23:38:21.563Z,-3.10
2018-12-19T23:40:50.348Z,-3.10
2018-12-19T23:43:19.120Z,-3.10
2018-12-19T23:45:48.087Z,-3.10
2018-12-19T23:48:16.770Z,-3.10
2018-12-19T23:50:45.538Z,-3.10
2018-12-19T23:53:14.672Z,-3.10
2018-12-19T23:55:43.590Z,-3.10
2018-12-19T23:58:12.340Z,-3.10
